Portada
METAR-TAF:

METAR-TAF

Aeroports :

Abha, Aràbia Saudita

latitud: 18-14N, longitud: 042-39E, altitud: 2090 m

Observació

L'informe es va fer fa 39 minuts, a les 17:00 UTC
Vent 6 kt del Nord-Est
Temperatura 24°C
Humitat 24%
Pressió 1023 hPa
Visibilitat 10 km o més
sense núvols per sota de 1500 mi sense presència de cumulonimbus.

METAR: OEAB 191700Z 04006KT CAVOK 24/02 Q1023 NOSIG

Hora: 20:39 (17:39 UTC)

Pronòstic

L'informe es va fer fa 6 hores i 39 minuts, a les 11:00 UTC
Pronòstic vàlid del 19 a les 12 UTC al 20 a les 18 UTC
Vent 10 kt del Est/Nord-Est
Visibilitat 10 km o més
Escasses núvols a una alçada de 2000 ft
Probabilitat 30% :
Temporalment
l' 19 a les 12 UTC al 19 a les 18 UTC
Núvols disperses a una alçada de 2000 ft
Escasses núvols a una alçada de 2500 ft, Cumulonimbus.
Evolucionant progressivament
l' 19 a les 20 UTC al 19 a les 22 UTC
Vent 3 kt amb direcció variable

TAF: OEAB 191100Z 1912/2018 06010KT 9999 FEW020 PROB30 TEMPO 1912/1918 SCT020 FEW025CB BECMG 1920/1922 VRB03KT

Observacions i pronòstics meteorològics de més de 4000 aeroports (METAR i TAF).

Les estacions disponibles són els punts grocs i vermells al mapa.

Posi el ratolí al punt desitjat per veure el nom de l'estació.

Feu clic per veure les observacions i els pronòstics meteorològics.

Per canviar el mapa: feu clic els botons verds amb una creu de color negre per apropar; al botó verd amb un guió per allunyar la imatge; o en les fletxes verdes per a mapes adjacents.


METAR-TAF: